createdAt,value
2023-02-19T00:01:31.641Z,20.70
2023-02-19T00:04:01.362Z,18.40
2023-02-19T00:06:30.071Z,19.02
2023-02-19T00:08:56.922Z,20.70
2023-02-19T00:11:25.908Z,20.65
2023-02-19T00:13:55.436Z,21.38
2023-02-19T00:16:24.131Z,23.05
2023-02-19T00:18:51.786Z,22.10
2023-02-19T00:21:19.309Z,23.88
2023-02-19T00:23:50.748Z,19.67
2023-02-19T00:26:18.976Z,19.55
2023-02-19T00:28:46.996Z,21.10
2023-02-19T00:31:18.693Z,22.05
2023-02-19T00:33:47.370Z,18.05
2023-02-19T00:36:15.305Z,27.33
2023-02-19T00:38:43.465Z,23.00
2023-02-19T00:41:21.281Z,20.25
2023-02-19T00:44:02.665Z,24.50
2023-02-19T00:46:35.818Z,22.38
2023-02-19T00:49:03.440Z,19.45
2023-02-19T00:51:32.581Z,23.60
2023-02-19T00:53:59.589Z,19.90
2023-02-19T00:56:26.973Z,23.02
2023-02-19T00:58:54.003Z,25.75
2023-02-19T01:01:21.294Z,23.10
2023-02-19T01:03:48.527Z,23.38
2023-02-19T01:06:17.877Z,22.35
2023-02-19T01:08:44.799Z,22.70
2023-02-19T01:11:12.556Z,21.23
2023-02-19T01:13:40.505Z,18.13
2023-02-19T01:16:10.962Z,18.50
2023-02-19T01:18:37.934Z,19.40
2023-02-19T01:21:10.695Z,24.83
2023-02-19T01:23:37.728Z,22.35
2023-02-19T01:26:09.189Z,18.30
2023-02-19T01:28:36.026Z,20.38
2023-02-19T01:31:04.615Z,24.38
2023-02-19T01:33:31.934Z,19.38
2023-02-19T01:35:58.653Z,20.63
2023-02-19T01:38:25.801Z,21.70
2023-02-19T01:41:01.029Z,21.77
2023-02-19T01:43:28.076Z,20.10
2023-02-19T01:45:55.225Z,21.83
2023-02-19T01:48:36.227Z,17.63
2023-02-19T01:51:21.645Z,20.85
2023-02-19T01:53:55.169Z,18.50
2023-02-19T01:56:23.449Z,22.48
2023-02-19T01:58:50.457Z,19.65
2023-02-19T02:01:17.219Z,17.55
2023-02-19T02:03:45.888Z,22.65
2023-02-19T02:06:33.111Z,17.77
2023-02-19T02:09:19.370Z,18.23
2023-02-19T02:11:51.446Z,15.95
2023-02-19T02:14:21.889Z,18.50
2023-02-19T02:17:24.767Z,17.00
2023-02-19T02:20:13.249Z,16.70
2023-02-19T02:23:14.712Z,19.10
2023-02-19T02:26:02.000Z,18.70
2023-02-19T02:28:48.658Z,17.75
2023-02-19T02:31:20.384Z,19.73
2023-02-19T02:33:47.065Z,20.13
2023-02-19T02:36:22.820Z,19.92
2023-02-19T02:38:50.172Z,20.77
2023-02-19T02:41:16.933Z,20.20
2023-02-19T02:43:44.080Z,19.60
2023-02-19T02:46:17.611Z,17.38
2023-02-19T02:48:55.725Z,17.45
2023-02-19T02:51:49.886Z,17.88
2023-02-19T02:54:48.757Z,17.90
2023-02-19T02:57:17.057Z,20.58
2023-02-19T02:59:45.207Z,18.92
2023-02-19T03:02:19.094Z,20.42
2023-02-19T03:05:07.470Z,20.73
2023-02-19T03:07:39.404Z,18.25
2023-02-19T03:10:09.305Z,17.50
2023-02-19T03:12:58.278Z,18.73
2023-02-19T03:15:49.620Z,18.50
2023-02-19T03:18:56.791Z,18.33
2023-02-19T03:21:25.442Z,17.13
2023-02-19T03:24:12.143Z,18.38
2023-02-19T03:26:41.093Z,20.77
2023-02-19T03:29:26.043Z,19.45
2023-02-19T03:32:00.773Z,19.17
2023-02-19T03:34:41.735Z,15.98
2023-02-19T03:37:31.753Z,23.23
2023-02-19T03:39:58.748Z,16.58
2023-02-19T03:42:59.015Z,19.73
2023-02-19T03:45:40.861Z,20.02
2023-02-19T03:48:35.022Z,19.00
2023-02-19T03:51:16.844Z,23.90
2023-02-19T03:53:49.531Z,18.70
2023-02-19T03:56:30.836Z,20.60
2023-02-19T03:59:05.428Z,25.05
2023-02-19T04:01:53.916Z,18.35
2023-02-19T04:04:30.445Z,20.35
2023-02-19T04:06:58.436Z,22.60
2023-02-19T04:09:35.778Z,25.08
2023-02-19T04:12:03.371Z,22.50
2023-02-19T04:14:36.288Z,24.58
2023-02-19T04:17:07.229Z,24.25
2023-02-19T04:19:36.923Z,21.42
2023-02-19T04:22:06.120Z,22.77
2023-02-19T04:24:41.691Z,24.92
2023-02-19T04:29:37.132Z,26.85
2023-02-19T04:32:05.403Z,27.85
2023-02-19T04:34:32.150Z,28.23
2023-02-19T04:36:58.930Z,29.20
2023-02-19T04:39:25.698Z,28.67
2023-02-19T04:41:52.494Z,28.45
2023-02-19T04:44:19.210Z,28.85
2023-02-19T04:46:45.899Z,29.80
2023-02-19T04:49:12.772Z,32.97
2023-02-19T04:51:40.352Z,30.23
2023-02-19T04:54:07.518Z,32.17
2023-02-19T04:56:34.348Z,29.63
2023-02-19T04:59:01.068Z,32.78
2023-02-19T05:01:28.111Z,30.17
2023-02-19T05:03:54.885Z,33.67
2023-02-19T05:06:21.626Z,28.00
2023-02-19T05:08:48.750Z,32.88
2023-02-19T05:11:15.416Z,33.17
2023-02-19T05:13:42.189Z,32.95
2023-02-19T05:16:16.163Z,33.85
2023-02-19T05:18:45.396Z,33.08
2023-02-19T05:21:12.899Z,31.17
2023-02-19T05:23:40.328Z,31.73
2023-02-19T05:26:17.151Z,31.17
2023-02-19T05:28:45.496Z,31.67
2023-02-19T05:31:13.411Z,32.05
2023-02-19T05:33:41.366Z,35.90
2023-02-19T05:36:10.354Z,31.02
2023-02-19T05:38:37.954Z,33.78
2023-02-19T05:41:12.441Z,32.15
2023-02-19T05:43:41.104Z,32.10
2023-02-19T05:46:09.476Z,34.28
2023-02-19T05:48:36.438Z,33.28
2023-02-19T05:51:09.063Z,29.98
2023-02-19T05:53:36.239Z,34.75
2023-02-19T05:56:03.252Z,32.75
2023-02-19T05:58:30.233Z,32.97
2023-02-19T06:00:57.088Z,34.28
2023-02-19T06:03:23.995Z,29.45
2023-02-19T06:05:50.874Z,34.35
2023-02-19T06:08:17.530Z,31.58
2023-02-19T06:10:44.428Z,30.83
2023-02-19T06:13:11.327Z,33.67
2023-02-19T06:15:38.407Z,31.33
2023-02-19T06:18:05.294Z,32.88
2023-02-19T06:20:33.011Z,33.72
2023-02-19T06:22:59.783Z,33.42
2023-02-19T06:25:26.468Z,34.40
2023-02-19T06:27:53.137Z,35.00
2023-02-19T06:30:20.124Z,35.13
2023-02-19T06:32:47.004Z,33.55
2023-02-19T06:35:13.753Z,31.40
2023-02-19T06:37:40.417Z,38.08
2023-02-19T06:40:08.137Z,31.17
2023-02-19T06:42:34.860Z,33.15
2023-02-19T06:45:01.569Z,37.60
2023-02-19T06:47:31.939Z,32.25
2023-02-19T06:50:00.541Z,32.80
2023-02-19T06:52:27.931Z,34.97
2023-02-19T06:54:54.877Z,36.55
2023-02-19T06:57:21.558Z,35.63
2023-02-19T06:59:48.353Z,36.33
2023-02-19T07:02:15.244Z,37.75
2023-02-19T07:04:42.012Z,38.75
2023-02-19T07:07:11.952Z,33.60
2023-02-19T07:09:38.736Z,35.35
2023-02-19T07:12:05.949Z,33.90
2023-02-19T07:14:32.830Z,37.50
2023-02-19T07:16:59.531Z,37.08
2023-02-19T07:19:26.276Z,35.75
2023-02-19T07:21:52.954Z,39.65
2023-02-19T07:24:21.642Z,35.67
2023-02-19T07:26:48.418Z,36.75
2023-02-19T07:29:15.267Z,34.75
2023-02-19T07:31:43.525Z,35.42
2023-02-19T07:34:10.274Z,33.42
2023-02-19T07:36:37.029Z,33.67
2023-02-19T07:39:04.460Z,36.22
2023-02-19T07:41:31.319Z,41.70
2023-02-19T07:43:58.637Z,36.72
2023-02-19T07:46:25.931Z,35.33
2023-02-19T07:48:52.762Z,35.78
2023-02-19T07:51:20.664Z,37.17
2023-02-19T07:53:50.129Z,36.88
2023-02-19T07:56:17.828Z,36.90
2023-02-19T07:58:46.204Z,35.40
2023-02-19T08:01:18.367Z,33.47
2023-02-19T08:03:45.800Z,38.28
2023-02-19T08:06:13.003Z,37.50
2023-02-19T08:08:40.451Z,35.22
2023-02-19T08:11:26.356Z,36.65
2023-02-19T08:13:53.799Z,40.60
2023-02-19T08:16:33.160Z,38.97
2023-02-19T08:19:04.454Z,36.72
2023-02-19T08:21:33.465Z,36.25
2023-02-19T08:24:00.929Z,35.85
2023-02-19T08:26:27.932Z,35.80
2023-02-19T08:28:54.642Z,35.33
2023-02-19T08:31:21.482Z,34.67
2023-02-19T08:33:48.292Z,35.17
2023-02-19T08:36:15.088Z,35.42
2023-02-19T08:38:41.779Z,43.13
2023-02-19T08:41:12.071Z,39.95
2023-02-19T08:43:39.963Z,44.58
2023-02-19T08:46:09.931Z,41.17
2023-02-19T08:48:37.697Z,38.35
2023-02-19T08:51:08.412Z,37.28
2023-02-19T08:53:36.551Z,40.65
2023-02-19T08:56:08.628Z,44.08
2023-02-19T08:58:36.066Z,39.38
2023-02-19T09:01:04.082Z,40.92
2023-02-19T09:03:31.150Z,37.55
2023-02-19T09:05:57.860Z,37.97
2023-02-19T09:08:24.560Z,42.47
2023-02-19T09:10:59.753Z,35.72
2023-02-19T09:13:26.512Z,39.03
2023-02-19T09:15:53.204Z,37.78
2023-02-19T09:18:19.948Z,39.67
2023-02-19T09:20:46.755Z,40.03
2023-02-19T09:23:13.513Z,38.67
2023-02-19T09:25:40.263Z,38.30
2023-02-19T09:28:07.045Z,33.47
2023-02-19T09:30:33.801Z,39.63
2023-02-19T09:33:00.658Z,31.38
2023-02-19T09:35:27.487Z,35.75
2023-02-19T09:37:54.183Z,40.13
2023-02-19T09:40:21.852Z,35.25
2023-02-19T09:42:50.969Z,37.72
2023-02-19T09:45:25.455Z,37.03
2023-02-19T09:47:58.616Z,37.78
2023-02-19T09:50:47.201Z,36.50
2023-02-19T09:53:23.434Z,33.78
2023-02-19T09:55:50.758Z,34.53
2023-02-19T09:58:26.935Z,30.70
2023-02-19T10:00:55.642Z,30.42
2023-02-19T10:03:35.454Z,28.65
2023-02-19T10:06:11.283Z,34.78
2023-02-19T10:08:40.496Z,25.67
2023-02-19T10:11:12.618Z,24.60
2023-02-19T10:14:03.214Z,26.60
2023-02-19T10:16:31.191Z,26.58
2023-02-19T10:18:58.131Z,22.05
2023-02-19T10:21:27.336Z,23.70
2023-02-19T10:24:01.499Z,23.52
2023-02-19T10:26:28.440Z,22.50
2023-02-19T10:28:55.587Z,21.25
2023-02-19T10:31:25.540Z,21.02
2023-02-19T10:33:55.312Z,18.70
2023-02-19T10:36:45.011Z,18.40
2023-02-19T10:39:39.768Z,21.83
2023-02-19T10:42:13.831Z,21.10
2023-02-19T10:44:45.955Z,18.13
2023-02-19T10:47:25.286Z,17.55
2023-02-19T10:49:54.379Z,17.15
2023-02-19T10:52:23.988Z,18.10
2023-02-19T10:55:13.352Z,14.52
2023-02-19T10:57:40.492Z,22.60
2023-02-19T11:00:16.320Z,14.65
2023-02-19T11:02:44.749Z,18.08
2023-02-19T11:05:18.093Z,17.85
2023-02-19T11:07:47.090Z,19.15
2023-02-19T11:10:42.490Z,14.68
2023-02-19T11:13:16.600Z,13.30
2023-02-19T11:15:43.964Z,14.75
2023-02-19T11:18:13.737Z,14.77
2023-02-19T11:20:54.410Z,17.88
2023-02-19T11:23:30.496Z,13.75
2023-02-19T11:26:01.111Z,18.15
2023-02-19T11:28:37.208Z,19.30
2023-02-19T11:31:19.173Z,14.95
2023-02-19T11:33:58.098Z,12.85
2023-02-19T11:37:11.747Z,10.85
2023-02-19T11:39:41.381Z,12.27
2023-02-19T11:42:11.303Z,11.07
2023-02-19T11:44:39.480Z,11.70
2023-02-19T11:47:35.174Z,9.38
2023-02-19T11:50:05.041Z,11.27
2023-02-19T11:52:52.467Z,11.75
2023-02-19T11:55:32.706Z,10.20
2023-02-19T11:58:32.321Z,15.63
2023-02-19T12:01:05.945Z,13.40
2023-02-19T12:03:48.357Z,10.98
2023-02-19T12:06:17.884Z,12.13
2023-02-19T12:08:56.497Z,9.55
2023-02-19T12:11:49.298Z,9.70
2023-02-19T12:14:27.981Z,11.73
2023-02-19T12:17:26.029Z,13.82
2023-02-19T12:19:52.724Z,12.00
2023-02-19T12:22:32.327Z,8.82
2023-02-19T12:25:07.982Z,8.93
2023-02-19T12:28:03.930Z,9.65
2023-02-19T12:30:49.583Z,11.95
2023-02-19T12:33:40.992Z,13.05
2023-02-19T12:36:21.159Z,9.68
2023-02-19T12:39:18.985Z,10.32
2023-02-19T12:41:57.006Z,9.20
2023-02-19T12:44:34.967Z,12.57
2023-02-19T12:47:03.777Z,10.95
2023-02-19T12:49:38.467Z,11.38
2023-02-19T12:52:24.743Z,11.55
2023-02-19T12:54:55.970Z,9.63
2023-02-19T12:57:28.933Z,10.98
2023-02-19T13:00:29.676Z,11.90
2023-02-19T13:03:09.502Z,10.40
2023-02-19T13:05:58.933Z,15.60
2023-02-19T13:08:35.517Z,10.10
2023-02-19T13:11:20.486Z,11.88
2023-02-19T13:13:56.896Z,10.30
2023-02-19T13:16:25.761Z,13.93
2023-02-19T13:18:56.674Z,10.32
2023-02-19T13:21:46.545Z,10.85
2023-02-19T13:24:41.393Z,11.48
2023-02-19T13:27:31.023Z,10.80
2023-02-19T13:30:06.587Z,11.25
2023-02-19T13:33:04.314Z,10.10
2023-02-19T13:35:31.079Z,10.30
2023-02-19T13:38:02.505Z,10.52
2023-02-19T13:40:39.412Z,10.15
2023-02-19T13:43:27.913Z,11.63
2023-02-19T13:46:01.433Z,13.63
2023-02-19T13:48:36.128Z,9.98
2023-02-19T13:51:24.175Z,12.52
2023-02-19T13:53:59.768Z,14.00
2023-02-19T13:56:34.463Z,9.93
2023-02-19T13:59:38.019Z,9.13
2023-02-19T14:02:04.724Z,9.07
2023-02-19T14:04:53.165Z,14.32
2023-02-19T14:07:34.226Z,10.00
2023-02-19T14:10:02.008Z,12.10
2023-02-19T14:12:34.777Z,11.73
2023-02-19T14:15:44.193Z,9.25
2023-02-19T14:18:46.284Z,9.90
2023-02-19T14:21:23.183Z,8.80
2023-02-19T14:23:56.001Z,7.22
2023-02-19T14:26:25.315Z,8.50
2023-02-19T14:28:53.955Z,9.20
2023-02-19T14:31:37.850Z,8.80
2023-02-19T14:34:07.337Z,8.00
2023-02-19T14:36:50.342Z,9.90
2023-02-19T14:39:24.446Z,9.23
2023-02-19T14:42:00.839Z,8.60
2023-02-19T14:44:31.167Z,12.57
2023-02-19T14:47:09.586Z,9.82
2023-02-19T14:49:59.378Z,15.02
2023-02-19T14:52:33.325Z,11.93
2023-02-19T14:55:01.520Z,11.73
2023-02-19T14:57:38.263Z,10.05
2023-02-19T15:00:21.857Z,9.93
2023-02-19T15:02:50.863Z,12.23
2023-02-19T15:05:19.495Z,12.40
2023-02-19T15:07:46.312Z,10.15
2023-02-19T15:10:14.763Z,8.68
2023-02-19T15:12:54.530Z,11.50
2023-02-19T15:15:29.759Z,9.32
2023-02-19T15:17:59.074Z,10.32
2023-02-19T15:20:28.854Z,10.32
2023-02-19T15:22:58.759Z,10.40
2023-02-19T15:25:34.920Z,9.45
2023-02-19T15:28:25.876Z,9.75
2023-02-19T15:30:58.350Z,10.13
2023-02-19T15:33:29.595Z,10.05
2023-02-19T15:36:00.379Z,9.32
2023-02-19T15:38:27.938Z,12.05
2023-02-19T15:40:58.571Z,11.65
2023-02-19T15:43:40.063Z,10.02
2023-02-19T15:46:13.224Z,11.18
2023-02-19T15:49:01.068Z,9.00
2023-02-19T15:51:35.921Z,12.80
2023-02-19T15:54:14.250Z,8.95
2023-02-19T15:56:47.093Z,12.48
2023-02-19T15:59:25.601Z,10.98
2023-02-19T16:01:52.672Z,9.00
2023-02-19T16:04:20.034Z,10.38
2023-02-19T16:06:55.506Z,15.93
2023-02-19T16:12:01.849Z,9.57
2023-02-19T16:14:37.031Z,10.80
2023-02-19T16:17:09.964Z,10.77
2023-02-19T16:19:42.624Z,11.55
2023-02-19T16:22:14.777Z,10.80
2023-02-19T16:24:45.376Z,12.32
2023-02-19T16:27:14.160Z,10.57
2023-02-19T16:29:41.236Z,11.48
2023-02-19T16:32:16.820Z,11.55
2023-02-19T16:34:49.158Z,9.50
2023-02-19T16:37:35.944Z,12.30
2023-02-19T16:40:08.956Z,12.02
2023-02-19T16:42:44.727Z,11.15
2023-02-19T16:45:11.461Z,11.57
2023-02-19T16:47:41.527Z,11.23
2023-02-19T16:50:15.054Z,10.73
2023-02-19T16:52:55.353Z,10.25
2023-02-19T16:55:22.842Z,11.63
2023-02-19T16:57:49.985Z,14.85
2023-02-19T17:00:19.078Z,12.85
2023-02-19T17:02:50.704Z,14.43
2023-02-19T17:05:19.166Z,14.43
2023-02-19T17:07:45.836Z,11.15
2023-02-19T17:10:27.469Z,14.65
2023-02-19T17:12:55.516Z,11.93
2023-02-19T17:15:23.246Z,13.13
2023-02-19T17:17:50.284Z,16.10
2023-02-19T17:20:16.911Z,16.13
2023-02-19T17:22:44.207Z,14.82
2023-02-19T17:25:11.046Z,15.65
2023-02-19T17:27:37.705Z,10.60
2023-02-19T17:30:13.921Z,12.98
2023-02-19T17:32:40.709Z,13.18
2023-02-19T17:35:07.629Z,11.15
2023-02-19T17:37:34.597Z,18.02
2023-02-19T17:40:01.293Z,14.50
2023-02-19T17:42:28.048Z,14.15
2023-02-19T17:44:55.160Z,13.35
2023-02-19T17:47:21.831Z,14.90
2023-02-19T17:49:48.534Z,14.20
2023-02-19T17:52:17.854Z,12.77
2023-02-19T17:54:44.612Z,15.98
2023-02-19T17:57:11.324Z,15.55
2023-02-19T17:59:38.090Z,16.58
2023-02-19T18:02:04.742Z,13.65
2023-02-19T18:04:31.398Z,16.08
2023-02-19T18:06:58.384Z,14.27
2023-02-19T18:09:25.137Z,14.10
2023-02-19T18:11:51.795Z,14.77
2023-02-19T18:14:18.596Z,20.38
2023-02-19T18:16:50.524Z,14.75
2023-02-19T18:19:17.710Z,21.33
2023-02-19T18:21:44.401Z,18.80
2023-02-19T18:24:11.117Z,14.40
2023-02-19T18:26:37.866Z,18.63
2023-02-19T18:29:05.627Z,18.45
2023-02-19T18:31:37.463Z,17.30
2023-02-19T18:34:05.753Z,16.67
2023-02-19T18:36:32.813Z,18.02
2023-02-19T18:38:59.552Z,24.92
2023-02-19T18:41:26.352Z,22.10
2023-02-19T18:43:53.089Z,22.20
2023-02-19T18:46:21.528Z,22.63
2023-02-19T18:48:48.297Z,21.25
2023-02-19T18:51:15.050Z,25.92
2023-02-19T18:53:43.012Z,23.52
2023-02-19T18:56:09.698Z,21.92
2023-02-19T18:58:36.412Z,23.88
2023-02-19T19:01:03.168Z,25.88
2023-02-19T19:03:31.272Z,26.48
2023-02-19T19:05:58.540Z,22.35
2023-02-19T19:08:25.455Z,22.00
2023-02-19T19:10:52.166Z,21.98
2023-02-19T19:13:19.119Z,24.60
2023-02-19T19:15:50.378Z,24.77
2023-02-19T19:18:18.330Z,20.10
2023-02-19T19:20:45.083Z,19.23
2023-02-19T19:23:12.402Z,20.10
2023-02-19T19:25:39.296Z,19.02
2023-02-19T19:28:06.266Z,20.63
2023-02-19T19:30:33.688Z,19.17
2023-02-19T19:33:01.717Z,18.05
2023-02-19T19:35:28.880Z,17.33
2023-02-19T19:37:55.630Z,20.13
2023-02-19T19:40:22.408Z,18.30
2023-02-19T19:42:52.367Z,16.67
2023-02-19T19:45:19.214Z,16.05
2023-02-19T19:47:46.217Z,16.73
2023-02-19T19:50:14.433Z,17.25
2023-02-19T19:52:41.238Z,14.55
2023-02-19T19:55:08.275Z,16.30
2023-02-19T19:57:35.084Z,17.75
2023-02-19T20:00:02.066Z,14.98
2023-02-19T20:02:28.861Z,16.30
2023-02-19T20:04:55.675Z,11.65
2023-02-19T20:07:22.469Z,13.38
2023-02-19T20:09:50.039Z,10.05
2023-02-19T20:12:17.630Z,12.52
2023-02-19T20:14:45.918Z,17.50
2023-02-19T20:17:13.161Z,12.77
2023-02-19T20:19:40.184Z,11.27
2023-02-19T20:22:06.864Z,15.68
2023-02-19T20:24:33.569Z,15.00
2023-02-19T20:27:02.076Z,14.98
2023-02-19T20:29:31.137Z,14.70
2023-02-19T20:31:59.972Z,12.95
2023-02-19T20:34:27.121Z,17.15
2023-02-19T20:36:54.274Z,18.05
2023-02-19T20:39:22.178Z,16.25
2023-02-19T20:41:50.991Z,18.45
2023-02-19T20:44:18.359Z,15.05
2023-02-19T20:46:47.752Z,17.02
2023-02-19T20:49:16.389Z,19.10
2023-02-19T20:51:48.594Z,17.85
2023-02-19T20:54:17.578Z,13.13
2023-02-19T20:56:48.974Z,16.05
2023-02-19T20:59:17.412Z,15.65
2023-02-19T21:01:44.564Z,14.70
2023-02-19T21:04:11.973Z,15.30
2023-02-19T21:06:38.911Z,16.15
2023-02-19T21:09:06.702Z,16.50
2023-02-19T21:11:33.876Z,16.75
2023-02-19T21:14:00.837Z,17.17
2023-02-19T21:16:29.274Z,16.15
2023-02-19T21:18:56.357Z,17.35
2023-02-19T21:21:27.523Z,23.02
2023-02-19T21:23:56.166Z,23.55
2023-02-19T21:26:23.594Z,19.08
2023-02-19T21:28:53.810Z,21.70
2023-02-19T21:31:22.459Z,21.73
2023-02-19T21:33:50.573Z,26.05
2023-02-19T21:36:18.686Z,34.45
2023-02-19T21:38:45.485Z,45.65
2023-02-19T21:41:12.218Z,49.42
2023-02-19T21:43:38.911Z,53.50
2023-02-19T21:46:05.693Z,63.05
2023-02-19T21:48:32.479Z,73.43
2023-02-19T21:50:59.101Z,85.85
2023-02-19T21:53:26.041Z,88.85
2023-02-19T21:55:58.217Z,91.35
2023-02-19T21:58:26.321Z,94.82
2023-02-19T22:00:54.001Z,103.10
2023-02-19T22:03:21.138Z,107.75
2023-02-19T22:05:47.915Z,117.90
2023-02-19T22:08:17.272Z,118.88
2023-02-19T22:10:44.153Z,121.65
2023-02-19T22:13:11.577Z,123.88
2023-02-19T22:15:38.256Z,122.05
2023-02-19T22:18:05.568Z,128.25
2023-02-19T22:20:32.366Z,125.88
2023-02-19T22:22:59.041Z,131.07
2023-02-19T22:25:25.705Z,131.30
2023-02-19T22:27:52.407Z,130.27
2023-02-19T22:30:19.269Z,144.15
2023-02-19T22:32:46.151Z,142.20
2023-02-19T22:35:15.407Z,144.00
2023-02-19T22:37:42.406Z,136.68
2023-02-19T22:40:09.429Z,139.77
2023-02-19T22:42:36.401Z,142.60
2023-02-19T22:45:03.250Z,139.98
2023-02-19T22:47:30.008Z,153.23
2023-02-19T22:49:56.945Z,132.80
2023-02-19T22:52:27.889Z,138.70
2023-02-19T22:54:55.746Z,153.68
2023-02-19T22:57:22.779Z,157.00
2023-02-19T22:59:49.447Z,145.85
2023-02-19T23:02:16.348Z,155.35
2023-02-19T23:04:43.130Z,156.55
2023-02-19T23:07:10.102Z,163.50
2023-02-19T23:09:36.856Z,154.63
2023-02-19T23:12:06.902Z,160.48
2023-02-19T23:14:34.066Z,156.93
2023-02-19T23:17:00.862Z,164.40
2023-02-19T23:19:28.098Z,157.35
2023-02-19T23:21:54.993Z,157.48
2023-02-19T23:24:21.788Z,161.10
2023-02-19T23:26:51.356Z,158.70
2023-02-19T23:29:21.046Z,154.23
2023-02-19T23:31:47.907Z,172.43
2023-02-19T23:34:15.236Z,168.25
2023-02-19T23:36:48.459Z,176.38
2023-02-19T23:39:18.541Z,173.90
2023-02-19T23:41:56.546Z,156.40
2023-02-19T23:44:25.177Z,171.23
2023-02-19T23:46:52.677Z,181.13
2023-02-19T23:49:20.057Z,170.13
2023-02-19T23:51:47.145Z,172.77
2023-02-19T23:54:14.233Z,172.77
2023-02-19T23:56:41.025Z,163.35
2023-02-19T23:59:07.771Z,172.68
